sensor_id;sensor_type;location;lat;lon;timestamp;P1;durP1;ratioP1;P2;durP2;ratioP2
11414;SDS011;5763;42.714;23.244;2023-04-15T00:01:57;4.72;;;2.90;;
11414;SDS011;5763;42.714;23.244;2023-04-15T00:04:24;6.47;;;2.78;;
11414;SDS011;5763;42.714;23.244;2023-04-15T00:06:52;3.65;;;2.95;;
11414;SDS011;5763;42.714;23.244;2023-04-15T00:09:20;4.80;;;3.05;;
11414;SDS011;5763;42.714;23.244;2023-04-15T00:11:46;3.85;;;2.67;;
11414;SDS011;5763;42.714;23.244;2023-04-15T00:14:13;3.38;;;2.55;;
11414;SDS011;5763;42.714;23.244;2023-04-15T00:16:40;5.13;;;3.40;;
11414;SDS011;5763;42.714;23.244;2023-04-15T00:19:07;5.32;;;3.50;;
11414;SDS011;5763;42.714;23.244;2023-04-15T00:21:34;6.15;;;3.70;;
11414;SDS011;5763;42.714;23.244;2023-04-15T00:24:02;4.78;;;3.42;;
11414;SDS011;5763;42.714;23.244;2023-04-15T00:26:29;4.38;;;2.97;;
11414;SDS011;5763;42.714;23.244;2023-04-15T00:28:56;5.93;;;3.10;;
11414;SDS011;5763;42.714;23.244;2023-04-15T00:31:22;4.68;;;3.70;;
11414;SDS011;5763;42.714;23.244;2023-04-15T00:33:49;4.72;;;3.22;;
11414;SDS011;5763;42.714;23.244;2023-04-15T00:36:16;4.40;;;3.33;;
11414;SDS011;5763;42.714;23.244;2023-04-15T00:38:43;4.05;;;3.15;;
11414;SDS011;5763;42.714;23.244;2023-04-15T00:41:11;5.72;;;3.00;;
11414;SDS011;5763;42.714;23.244;2023-04-15T00:43:38;5.20;;;2.97;;
11414;SDS011;5763;42.714;23.244;2023-04-15T00:46:05;6.00;;;3.40;;
11414;SDS011;5763;42.714;23.244;2023-04-15T00:48:33;4.72;;;3.33;;
11414;SDS011;5763;42.714;23.244;2023-04-15T00:51:01;5.10;;;3.53;;
11414;SDS011;5763;42.714;23.244;2023-04-15T00:53:27;6.97;;;3.70;;
11414;SDS011;5763;42.714;23.244;2023-04-15T00:55:54;5.57;;;3.42;;
11414;SDS011;5763;42.714;23.244;2023-04-15T00:58:22;4.40;;;3.15;;
11414;SDS011;5763;42.714;23.244;2023-04-15T01:00:50;4.25;;;3.13;;
11414;SDS011;5763;42.714;23.244;2023-04-15T01:03:18;4.45;;;2.95;;
11414;SDS011;5763;42.714;23.244;2023-04-15T01:05:45;6.55;;;3.40;;
11414;SDS011;5763;42.714;23.244;2023-04-15T01:08:11;5.28;;;3.70;;
11414;SDS011;5763;42.714;23.244;2023-04-15T01:10:38;7.50;;;3.40;;
11414;SDS011;5763;42.714;23.244;2023-04-15T01:13:06;5.95;;;3.78;;
11414;SDS011;5763;42.714;23.244;2023-04-15T01:15:35;5.30;;;3.13;;
11414;SDS011;5763;42.714;23.244;2023-04-15T01:18:01;3.92;;;3.10;;
11414;SDS011;5763;42.714;23.244;2023-04-15T01:20:28;4.80;;;3.30;;
11414;SDS011;5763;42.714;23.244;2023-04-15T01:22:55;4.07;;;3.35;;
11414;SDS011;5763;42.714;23.244;2023-04-15T01:25:27;4.22;;;2.83;;
11414;SDS011;5763;42.714;23.244;2023-04-15T01:27:58;4.95;;;3.00;;
11414;SDS011;5763;42.714;23.244;2023-04-15T01:30:25;5.82;;;3.22;;
11414;SDS011;5763;42.714;23.244;2023-04-15T01:32:52;4.60;;;3.17;;
11414;SDS011;5763;42.714;23.244;2023-04-15T01:35:18;4.65;;;3.42;;
11414;SDS011;5763;42.714;23.244;2023-04-15T01:37:46;4.32;;;3.30;;
11414;SDS011;5763;42.714;23.244;2023-04-15T01:40:13;3.85;;;3.22;;
11414;SDS011;5763;42.714;23.244;2023-04-15T01:42:42;6.43;;;2.63;;
11414;SDS011;5763;42.714;23.244;2023-04-15T01:45:09;5.07;;;3.65;;
11414;SDS011;5763;42.714;23.244;2023-04-15T01:47:36;4.75;;;3.53;;
11414;SDS011;5763;42.714;23.244;2023-04-15T01:50:03;4.95;;;3.33;;
11414;SDS011;5763;42.714;23.244;2023-04-15T01:52:31;4.72;;;3.25;;
11414;SDS011;5763;42.714;23.244;2023-04-15T01:54:58;5.15;;;3.35;;
11414;SDS011;5763;42.714;23.244;2023-04-15T01:57:24;6.55;;;3.20;;
11414;SDS011;5763;42.714;23.244;2023-04-15T01:59:53;5.40;;;3.25;;
11414;SDS011;5763;42.714;23.244;2023-04-15T02:02:20;6.88;;;3.75;;
11414;SDS011;5763;42.714;23.244;2023-04-15T02:04:46;4.18;;;3.00;;
11414;SDS011;5763;42.714;23.244;2023-04-15T02:07:14;5.20;;;3.63;;
11414;SDS011;5763;42.714;23.244;2023-04-15T02:09:41;5.72;;;3.60;;
11414;SDS011;5763;42.714;23.244;2023-04-15T02:12:08;4.15;;;3.25;;
11414;SDS011;5763;42.714;23.244;2023-04-15T02:14:34;5.03;;;3.33;;
11414;SDS011;5763;42.714;23.244;2023-04-15T02:17:02;4.95;;;3.50;;
11414;SDS011;5763;42.714;23.244;2023-04-15T02:19:32;4.70;;;3.45;;
11414;SDS011;5763;42.714;23.244;2023-04-15T02:21:59;5.63;;;3.35;;
11414;SDS011;5763;42.714;23.244;2023-04-15T02:24:26;6.00;;;3.65;;
11414;SDS011;5763;42.714;23.244;2023-04-15T02:26:56;3.53;;;2.95;;
11414;SDS011;5763;42.714;23.244;2023-04-15T02:29:23;4.10;;;3.22;;
11414;SDS011;5763;42.714;23.244;2023-04-15T02:31:50;6.93;;;3.83;;
11414;SDS011;5763;42.714;23.244;2023-04-15T02:34:18;4.88;;;3.70;;
11414;SDS011;5763;42.714;23.244;2023-04-15T02:36:44;4.57;;;3.63;;
11414;SDS011;5763;42.714;23.244;2023-04-15T02:39:12;3.72;;;3.17;;
11414;SDS011;5763;42.714;23.244;2023-04-15T02:41:41;7.70;;;4.00;;
11414;SDS011;5763;42.714;23.244;2023-04-15T02:44:08;6.93;;;4.40;;
11414;SDS011;5763;42.714;23.244;2023-04-15T02:46:37;8.18;;;5.32;;
11414;SDS011;5763;42.714;23.244;2023-04-15T02:49:05;7.45;;;4.97;;
11414;SDS011;5763;42.714;23.244;2023-04-15T02:51:33;5.20;;;4.32;;
11414;SDS011;5763;42.714;23.244;2023-04-15T02:54:00;7.57;;;5.00;;
11414;SDS011;5763;42.714;23.244;2023-04-15T02:56:27;7.53;;;4.50;;
11414;SDS011;5763;42.714;23.244;2023-04-15T02:58:54;8.95;;;4.82;;
11414;SDS011;5763;42.714;23.244;2023-04-15T03:01:21;5.35;;;4.35;;
11414;SDS011;5763;42.714;23.244;2023-04-15T03:03:48;7.60;;;4.53;;
11414;SDS011;5763;42.714;23.244;2023-04-15T03:06:14;5.72;;;4.38;;
11414;SDS011;5763;42.714;23.244;2023-04-15T03:08:43;6.45;;;4.57;;
11414;SDS011;5763;42.714;23.244;2023-04-15T03:11:09;5.95;;;3.95;;
11414;SDS011;5763;42.714;23.244;2023-04-15T03:13:36;8.88;;;4.55;;
11414;SDS011;5763;42.714;23.244;2023-04-15T03:16:06;4.85;;;4.28;;
11414;SDS011;5763;42.714;23.244;2023-04-15T03:18:33;7.20;;;4.32;;
11414;SDS011;5763;42.714;23.244;2023-04-15T03:20:59;5.97;;;4.45;;
11414;SDS011;5763;42.714;23.244;2023-04-15T03:23:26;6.35;;;4.53;;
11414;SDS011;5763;42.714;23.244;2023-04-15T03:25:55;5.13;;;4.47;;
11414;SDS011;5763;42.714;23.244;2023-04-15T03:28:22;5.57;;;4.10;;
11414;SDS011;5763;42.714;23.244;2023-04-15T03:30:49;6.43;;;4.35;;
11414;SDS011;5763;42.714;23.244;2023-04-15T03:33:15;5.72;;;4.50;;
11414;SDS011;5763;42.714;23.244;2023-04-15T03:35:42;7.80;;;5.07;;
11414;SDS011;5763;42.714;23.244;2023-04-15T03:38:09;7.93;;;5.05;;
11414;SDS011;5763;42.714;23.244;2023-04-15T03:40:36;6.95;;;4.47;;
11414;SDS011;5763;42.714;23.244;2023-04-15T03:43:05;6.15;;;4.70;;
11414;SDS011;5763;42.714;23.244;2023-04-15T03:45:31;6.47;;;4.30;;
11414;SDS011;5763;42.714;23.244;2023-04-15T03:47:58;7.30;;;4.32;;
11414;SDS011;5763;42.714;23.244;2023-04-15T03:50:25;7.57;;;3.78;;
11414;SDS011;5763;42.714;23.244;2023-04-15T03:52:52;4.63;;;3.65;;
11414;SDS011;5763;42.714;23.244;2023-04-15T03:55:19;6.50;;;3.80;;
11414;SDS011;5763;42.714;23.244;2023-04-15T03:57:45;4.72;;;3.55;;
11414;SDS011;5763;42.714;23.244;2023-04-15T04:00:14;4.70;;;3.38;;
11414;SDS011;5763;42.714;23.244;2023-04-15T04:02:40;4.93;;;3.40;;
11414;SDS011;5763;42.714;23.244;2023-04-15T04:05:07;4.78;;;3.10;;
11414;SDS011;5763;42.714;23.244;2023-04-15T04:07:34;4.55;;;3.50;;
11414;SDS011;5763;42.714;23.244;2023-04-15T04:10:01;4.60;;;3.65;;
11414;SDS011;5763;42.714;23.244;2023-04-15T04:12:28;5.90;;;3.80;;
11414;SDS011;5763;42.714;23.244;2023-04-15T04:14:55;3.83;;;3.28;;
11414;SDS011;5763;42.714;23.244;2023-04-15T04:17:23;3.90;;;3.20;;
11414;SDS011;5763;42.714;23.244;2023-04-15T04:19:50;6.13;;;3.95;;
11414;SDS011;5763;42.714;23.244;2023-04-15T04:22:17;6.03;;;3.83;;
11414;SDS011;5763;42.714;23.244;2023-04-15T04:24:47;6.90;;;3.90;;
11414;SDS011;5763;42.714;23.244;2023-04-15T04:27:14;5.72;;;3.67;;
11414;SDS011;5763;42.714;23.244;2023-04-15T04:29:41;4.25;;;3.53;;
11414;SDS011;5763;42.714;23.244;2023-04-15T04:32:08;9.15;;;6.35;;
11414;SDS011;5763;42.714;23.244;2023-04-15T04:34:37;7.38;;;5.07;;
11414;SDS011;5763;42.714;23.244;2023-04-15T04:37:03;7.13;;;4.07;;
11414;SDS011;5763;42.714;23.244;2023-04-15T04:39:31;4.28;;;3.50;;
11414;SDS011;5763;42.714;23.244;2023-04-15T04:41:57;4.55;;;3.63;;
11414;SDS011;5763;42.714;23.244;2023-04-15T04:44:25;6.20;;;3.42;;
11414;SDS011;5763;42.714;23.244;2023-04-15T04:46:51;3.97;;;3.47;;
11414;SDS011;5763;42.714;23.244;2023-04-15T04:49:18;5.10;;;3.47;;
11414;SDS011;5763;42.714;23.244;2023-04-15T04:51:46;5.82;;;3.70;;
11414;SDS011;5763;42.714;23.244;2023-04-15T04:54:13;5.55;;;3.92;;
11414;SDS011;5763;42.714;23.244;2023-04-15T04:56:40;5.10;;;3.88;;
11414;SDS011;5763;42.714;23.244;2023-04-15T04:59:07;5.88;;;3.75;;
11414;SDS011;5763;42.714;23.244;2023-04-15T05:01:33;8.00;;;4.20;;
11414;SDS011;5763;42.714;23.244;2023-04-15T05:04:00;6.43;;;4.03;;
11414;SDS011;5763;42.714;23.244;2023-04-15T05:06:28;6.20;;;3.95;;
11414;SDS011;5763;42.714;23.244;2023-04-15T05:08:57;5.90;;;4.10;;
11414;SDS011;5763;42.714;23.244;2023-04-15T05:11:23;7.03;;;4.22;;
11414;SDS011;5763;42.714;23.244;2023-04-15T05:13:50;5.20;;;3.92;;
11414;SDS011;5763;42.714;23.244;2023-04-15T05:16:17;6.03;;;4.50;;
11414;SDS011;5763;42.714;23.244;2023-04-15T05:18:44;5.15;;;3.53;;
11414;SDS011;5763;42.714;23.244;2023-04-15T05:21:11;5.07;;;3.72;;
11414;SDS011;5763;42.714;23.244;2023-04-15T05:23:38;6.38;;;3.63;;
11414;SDS011;5763;42.714;23.244;2023-04-15T05:26:06;7.85;;;3.78;;
11414;SDS011;5763;42.714;23.244;2023-04-15T05:28:33;7.05;;;3.80;;
11414;SDS011;5763;42.714;23.244;2023-04-15T05:31:00;4.85;;;3.72;;
11414;SDS011;5763;42.714;23.244;2023-04-15T05:33:27;6.45;;;3.53;;
11414;SDS011;5763;42.714;23.244;2023-04-15T05:35:53;4.45;;;3.17;;
11414;SDS011;5763;42.714;23.244;2023-04-15T05:38:20;4.35;;;3.30;;
11414;SDS011;5763;42.714;23.244;2023-04-15T05:40:47;5.18;;;3.00;;
11414;SDS011;5763;42.714;23.244;2023-04-15T05:43:15;5.30;;;3.30;;
11414;SDS011;5763;42.714;23.244;2023-04-15T05:45:42;7.50;;;3.28;;
11414;SDS011;5763;42.714;23.244;2023-04-15T05:48:08;4.90;;;3.58;;
11414;SDS011;5763;42.714;23.244;2023-04-15T05:50:35;4.45;;;3.58;;
11414;SDS011;5763;42.714;23.244;2023-04-15T05:53:02;7.85;;;3.17;;
11414;SDS011;5763;42.714;23.244;2023-04-15T05:55:29;6.07;;;3.25;;
11414;SDS011;5763;42.714;23.244;2023-04-15T05:57:56;4.97;;;3.33;;
11414;SDS011;5763;42.714;23.244;2023-04-15T06:00:24;3.95;;;3.05;;
11414;SDS011;5763;42.714;23.244;2023-04-15T06:02:51;4.18;;;3.45;;
11414;SDS011;5763;42.714;23.244;2023-04-15T06:05:18;5.72;;;3.42;;
11414;SDS011;5763;42.714;23.244;2023-04-15T06:07:45;4.28;;;3.10;;
11414;SDS011;5763;42.714;23.244;2023-04-15T06:10:12;7.80;;;3.50;;
11414;SDS011;5763;42.714;23.244;2023-04-15T06:12:38;3.58;;;2.95;;
11414;SDS011;5763;42.714;23.244;2023-04-15T06:15:06;5.45;;;2.53;;
11414;SDS011;5763;42.714;23.244;2023-04-15T06:17:35;7.03;;;2.70;;
11414;SDS011;5763;42.714;23.244;2023-04-15T06:20:02;4.40;;;2.50;;
11414;SDS011;5763;42.714;23.244;2023-04-15T06:22:29;5.00;;;2.60;;
11414;SDS011;5763;42.714;23.244;2023-04-15T06:24:56;5.80;;;2.50;;
11414;SDS011;5763;42.714;23.244;2023-04-15T06:27:23;4.53;;;2.38;;
11414;SDS011;5763;42.714;23.244;2023-04-15T06:29:50;6.70;;;2.70;;
11414;SDS011;5763;42.714;23.244;2023-04-15T06:32:17;5.93;;;2.80;;
11414;SDS011;5763;42.714;23.244;2023-04-15T06:34:45;4.93;;;2.80;;
11414;SDS011;5763;42.714;23.244;2023-04-15T06:37:12;5.47;;;3.03;;
11414;SDS011;5763;42.714;23.244;2023-04-15T06:39:40;5.82;;;3.30;;
11414;SDS011;5763;42.714;23.244;2023-04-15T06:42:07;7.10;;;2.97;;
11414;SDS011;5763;42.714;23.244;2023-04-15T06:44:34;4.63;;;3.22;;
11414;SDS011;5763;42.714;23.244;2023-04-15T06:47:01;4.55;;;2.60;;
11414;SDS011;5763;42.714;23.244;2023-04-15T06:49:28;4.47;;;2.47;;
11414;SDS011;5763;42.714;23.244;2023-04-15T06:51:56;6.38;;;2.88;;
11414;SDS011;5763;42.714;23.244;2023-04-15T06:54:24;6.35;;;2.65;;
11414;SDS011;5763;42.714;23.244;2023-04-15T06:56:51;6.20;;;2.58;;
11414;SDS011;5763;42.714;23.244;2023-04-15T06:59:18;6.10;;;2.85;;
11414;SDS011;5763;42.714;23.244;2023-04-15T07:01:45;5.50;;;2.90;;
11414;SDS011;5763;42.714;23.244;2023-04-15T07:04:11;5.88;;;3.38;;
11414;SDS011;5763;42.714;23.244;2023-04-15T07:06:38;8.40;;;3.38;;
11414;SDS011;5763;42.714;23.244;2023-04-15T07:09:07;4.00;;;2.80;;
11414;SDS011;5763;42.714;23.244;2023-04-15T07:11:34;5.40;;;2.83;;
11414;SDS011;5763;42.714;23.244;2023-04-15T07:14:00;4.63;;;3.22;;
11414;SDS011;5763;42.714;23.244;2023-04-15T07:16:28;5.63;;;2.80;;
11414;SDS011;5763;42.714;23.244;2023-04-15T07:18:55;4.25;;;3.08;;
11414;SDS011;5763;42.714;23.244;2023-04-15T07:21:21;6.47;;;2.78;;
11414;SDS011;5763;42.714;23.244;2023-04-15T07:23:49;7.00;;;3.40;;
11414;SDS011;5763;42.714;23.244;2023-04-15T07:26:17;6.07;;;2.72;;
11414;SDS011;5763;42.714;23.244;2023-04-15T07:28:44;4.82;;;3.30;;
11414;SDS011;5763;42.714;23.244;2023-04-15T07:31:11;4.97;;;2.20;;
11414;SDS011;5763;42.714;23.244;2023-04-15T07:33:39;5.45;;;2.72;;
11414;SDS011;5763;42.714;23.244;2023-04-15T07:36:06;3.92;;;2.75;;
11414;SDS011;5763;42.714;23.244;2023-04-15T07:38:32;4.78;;;2.03;;
11414;SDS011;5763;42.714;23.244;2023-04-15T07:40:59;3.92;;;2.13;;
11414;SDS011;5763;42.714;23.244;2023-04-15T07:43:28;7.78;;;2.50;;
11414;SDS011;5763;42.714;23.244;2023-04-15T07:45:55;5.13;;;2.58;;
11414;SDS011;5763;42.714;23.244;2023-04-15T07:48:21;3.70;;;2.00;;
11414;SDS011;5763;42.714;23.244;2023-04-15T07:50:48;4.43;;;2.05;;
11414;SDS011;5763;42.714;23.244;2023-04-15T07:53:15;3.17;;;2.35;;
11414;SDS011;5763;42.714;23.244;2023-04-15T07:55:41;4.80;;;1.48;;
11414;SDS011;5763;42.714;23.244;2023-04-15T07:58:08;3.40;;;1.00;;
11414;SDS011;5763;42.714;23.244;2023-04-15T08:00:37;1.80;;;1.00;;
11414;SDS011;5763;42.714;23.244;2023-04-15T08:03:04;1.55;;;0.93;;
11414;SDS011;5763;42.714;23.244;2023-04-15T08:07:58;1.55;;;0.70;;
11414;SDS011;5763;42.714;23.244;2023-04-15T08:10:25;1.58;;;0.70;;
11414;SDS011;5763;42.714;23.244;2023-04-15T08:12:51;3.55;;;0.90;;
11414;SDS011;5763;42.714;23.244;2023-04-15T08:15:20;1.42;;;0.70;;
11414;SDS011;5763;42.714;23.244;2023-04-15T08:17:48;2.67;;;0.70;;
11414;SDS011;5763;42.714;23.244;2023-04-15T08:20:15;1.50;;;0.80;;
11414;SDS011;5763;42.714;23.244;2023-04-15T08:22:42;2.35;;;1.00;;
11414;SDS011;5763;42.714;23.244;2023-04-15T08:25:09;3.17;;;0.82;;
11414;SDS011;5763;42.714;23.244;2023-04-15T08:27:35;2.38;;;0.93;;
11414;SDS011;5763;42.714;23.244;2023-04-15T08:30:02;6.97;;;1.33;;
11414;SDS011;5763;42.714;23.244;2023-04-15T08:32:30;2.70;;;0.93;;
11414;SDS011;5763;42.714;23.244;2023-04-15T08:34:58;1.75;;;1.00;;
11414;SDS011;5763;42.714;23.244;2023-04-15T08:37:26;1.95;;;0.73;;
11414;SDS011;5763;42.714;23.244;2023-04-15T08:39:53;2.63;;;0.95;;
11414;SDS011;5763;42.714;23.244;2023-04-15T08:42:22;2.15;;;1.20;;
11414;SDS011;5763;42.714;23.244;2023-04-15T08:44:53;1.98;;;0.80;;
11414;SDS011;5763;42.714;23.244;2023-04-15T08:47:20;3.33;;;0.85;;
11414;SDS011;5763;42.714;23.244;2023-04-15T08:49:51;2.13;;;0.90;;
11414;SDS011;5763;42.714;23.244;2023-04-15T08:52:22;1.95;;;0.88;;
11414;SDS011;5763;42.714;23.244;2023-04-15T08:54:50;2.72;;;0.93;;
11414;SDS011;5763;42.714;23.244;2023-04-15T08:57:22;0.88;;;0.60;;
11414;SDS011;5763;42.714;23.244;2023-04-15T08:59:49;2.60;;;0.80;;
11414;SDS011;5763;42.714;23.244;2023-04-15T09:02:17;1.65;;;0.80;;
11414;SDS011;5763;42.714;23.244;2023-04-15T09:04:44;1.67;;;0.80;;
11414;SDS011;5763;42.714;23.244;2023-04-15T09:07:11;1.40;;;0.68;;
11414;SDS011;5763;42.714;23.244;2023-04-15T09:09:40;2.92;;;0.70;;
11414;SDS011;5763;42.714;23.244;2023-04-15T09:12:06;2.65;;;0.80;;
11414;SDS011;5763;42.714;23.244;2023-04-15T09:14:34;3.35;;;0.85;;
11414;SDS011;5763;42.714;23.244;2023-04-15T09:17:02;2.28;;;0.73;;
11414;SDS011;5763;42.714;23.244;2023-04-15T09:19:30;0.98;;;0.60;;
11414;SDS011;5763;42.714;23.244;2023-04-15T09:21:57;1.17;;;0.52;;
11414;SDS011;5763;42.714;23.244;2023-04-15T09:24:27;0.70;;;0.60;;
11414;SDS011;5763;42.714;23.244;2023-04-15T09:27:02;2.83;;;0.80;;
11414;SDS011;5763;42.714;23.244;2023-04-15T09:29:30;1.77;;;0.75;;
11414;SDS011;5763;42.714;23.244;2023-04-15T09:31:57;1.25;;;0.80;;
11414;SDS011;5763;42.714;23.244;2023-04-15T09:34:35;2.10;;;0.73;;
11414;SDS011;5763;42.714;23.244;2023-04-15T09:37:02;1.38;;;0.65;;
11414;SDS011;5763;42.714;23.244;2023-04-15T09:39:41;1.65;;;0.60;;
11414;SDS011;5763;42.714;23.244;2023-04-15T09:42:13;2.88;;;0.70;;
11414;SDS011;5763;42.714;23.244;2023-04-15T09:44:41;1.27;;;0.65;;
11414;SDS011;5763;42.714;23.244;2023-04-15T09:47:09;1.73;;;0.63;;
11414;SDS011;5763;42.714;23.244;2023-04-15T09:49:54;1.70;;;1.00;;
11414;SDS011;5763;42.714;23.244;2023-04-15T09:52:21;0.90;;;0.60;;
11414;SDS011;5763;42.714;23.244;2023-04-15T09:54:48;3.63;;;0.90;;
11414;SDS011;5763;42.714;23.244;2023-04-15T09:57:20;1.70;;;0.60;;
11414;SDS011;5763;42.714;23.244;2023-04-15T09:59:47;1.52;;;0.70;;
11414;SDS011;5763;42.714;23.244;2023-04-15T10:02:14;0.90;;;0.50;;
11414;SDS011;5763;42.714;23.244;2023-04-15T10:04:43;0.95;;;0.50;;
11414;SDS011;5763;42.714;23.244;2023-04-15T10:07:12;1.40;;;0.60;;
11414;SDS011;5763;42.714;23.244;2023-04-15T10:09:42;1.23;;;0.63;;
11414;SDS011;5763;42.714;23.244;2023-04-15T10:12:11;3.42;;;0.80;;
11414;SDS011;5763;42.714;23.244;2023-04-15T10:14:40;1.00;;;0.60;;
11414;SDS011;5763;42.714;23.244;2023-04-15T10:17:10;3.63;;;0.80;;
11414;SDS011;5763;42.714;23.244;2023-04-15T10:19:37;1.70;;;0.60;;
11414;SDS011;5763;42.714;23.244;2023-04-15T10:22:05;0.80;;;0.70;;
11414;SDS011;5763;42.714;23.244;2023-04-15T10:24:33;1.80;;;0.70;;
11414;SDS011;5763;42.714;23.244;2023-04-15T10:26:59;2.13;;;0.70;;
11414;SDS011;5763;42.714;23.244;2023-04-15T10:29:28;2.10;;;1.00;;
11414;SDS011;5763;42.714;23.244;2023-04-15T10:31:56;1.58;;;0.50;;
11414;SDS011;5763;42.714;23.244;2023-04-15T10:34:25;1.63;;;0.60;;
11414;SDS011;5763;42.714;23.244;2023-04-15T10:36:54;0.80;;;0.57;;
11414;SDS011;5763;42.714;23.244;2023-04-15T10:39:40;2.15;;;0.65;;
11414;SDS011;5763;42.714;23.244;2023-04-15T10:42:09;2.40;;;0.70;;
11414;SDS011;5763;42.714;23.244;2023-04-15T10:44:37;1.38;;;0.63;;
11414;SDS011;5763;42.714;23.244;2023-04-15T10:47:08;1.38;;;0.60;;
11414;SDS011;5763;42.714;23.244;2023-04-15T10:49:42;2.97;;;0.82;;
11414;SDS011;5763;42.714;23.244;2023-04-15T10:52:10;2.28;;;0.60;;
11414;SDS011;5763;42.714;23.244;2023-04-15T10:54:39;1.77;;;0.85;;
11414;SDS011;5763;42.714;23.244;2023-04-15T10:57:07;2.75;;;0.80;;
11414;SDS011;5763;42.714;23.244;2023-04-15T10:59:35;1.45;;;0.75;;
11414;SDS011;5763;42.714;23.244;2023-04-15T11:02:04;1.85;;;0.90;;
11414;SDS011;5763;42.714;23.244;2023-04-15T11:04:51;2.00;;;1.00;;
11414;SDS011;5763;42.714;23.244;2023-04-15T11:07:32;1.40;;;0.88;;
11414;SDS011;5763;42.714;23.244;2023-04-15T11:10:00;2.05;;;1.10;;
11414;SDS011;5763;42.714;23.244;2023-04-15T11:12:32;2.90;;;1.10;;
11414;SDS011;5763;42.714;23.244;2023-04-15T11:17:52;1.75;;;0.90;;
11414;SDS011;5763;42.714;23.244;2023-04-15T11:20:21;1.88;;;1.08;;
11414;SDS011;5763;42.714;23.244;2023-04-15T11:22:48;2.88;;;1.10;;
11414;SDS011;5763;42.714;23.244;2023-04-15T11:25:22;1.40;;;0.90;;
11414;SDS011;5763;42.714;23.244;2023-04-15T11:27:50;1.83;;;0.77;;
11414;SDS011;5763;42.714;23.244;2023-04-15T11:30:19;2.42;;;0.90;;
11414;SDS011;5763;42.714;23.244;2023-04-15T11:32:46;1.80;;;0.77;;
11414;SDS011;5763;42.714;23.244;2023-04-15T11:35:14;1.35;;;0.70;;
11414;SDS011;5763;42.714;23.244;2023-04-15T11:37:43;1.77;;;0.95;;
11414;SDS011;5763;42.714;23.244;2023-04-15T11:40:10;3.22;;;1.00;;
11414;SDS011;5763;42.714;23.244;2023-04-15T11:42:39;2.75;;;1.10;;
11414;SDS011;5763;42.714;23.244;2023-04-15T11:45:06;2.63;;;0.90;;
11414;SDS011;5763;42.714;23.244;2023-04-15T11:47:33;2.63;;;1.10;;
11414;SDS011;5763;42.714;23.244;2023-04-15T11:50:14;2.67;;;0.93;;
11414;SDS011;5763;42.714;23.244;2023-04-15T11:52:52;1.65;;;1.10;;
11414;SDS011;5763;42.714;23.244;2023-04-15T11:55:19;2.95;;;0.90;;
11414;SDS011;5763;42.714;23.244;2023-04-15T11:57:46;3.05;;;0.73;;
11414;SDS011;5763;42.714;23.244;2023-04-15T12:00:12;2.55;;;0.98;;
11414;SDS011;5763;42.714;23.244;2023-04-15T12:02:41;1.52;;;0.77;;
11414;SDS011;5763;42.714;23.244;2023-04-15T12:05:08;1.92;;;1.00;;
11414;SDS011;5763;42.714;23.244;2023-04-15T12:10:25;2.45;;;0.88;;
11414;SDS011;5763;42.714;23.244;2023-04-15T12:12:51;2.05;;;1.00;;
11414;SDS011;5763;42.714;23.244;2023-04-15T12:15:20;1.52;;;0.65;;
11414;SDS011;5763;42.714;23.244;2023-04-15T12:17:47;0.88;;;0.63;;
11414;SDS011;5763;42.714;23.244;2023-04-15T12:20:19;2.05;;;0.95;;
11414;SDS011;5763;42.714;23.244;2023-04-15T12:22:49;1.73;;;1.00;;
11414;SDS011;5763;42.714;23.244;2023-04-15T12:25:17;2.08;;;0.75;;
11414;SDS011;5763;42.714;23.244;2023-04-15T12:27:49;2.55;;;0.90;;
11414;SDS011;5763;42.714;23.244;2023-04-15T12:30:17;1.60;;;0.60;;
11414;SDS011;5763;42.714;23.244;2023-04-15T12:32:44;1.92;;;0.80;;
11414;SDS011;5763;42.714;23.244;2023-04-15T12:35:12;1.67;;;0.82;;
11414;SDS011;5763;42.714;23.244;2023-04-15T12:37:38;1.55;;;0.60;;
11414;SDS011;5763;42.714;23.244;2023-04-15T12:40:07;0.90;;;0.60;;
11414;SDS011;5763;42.714;23.244;2023-04-15T12:42:35;2.90;;;0.93;;
11414;SDS011;5763;42.714;23.244;2023-04-15T12:45:02;1.60;;;1.40;;
11414;SDS011;5763;42.714;23.244;2023-04-15T12:47:29;3.03;;;1.20;;
11414;SDS011;5763;42.714;23.244;2023-04-15T12:49:56;1.65;;;0.70;;
11414;SDS011;5763;42.714;23.244;2023-04-15T12:52:22;1.70;;;0.80;;
11414;SDS011;5763;42.714;23.244;2023-04-15T12:54:49;1.63;;;0.70;;
11414;SDS011;5763;42.714;23.244;2023-04-15T12:57:16;1.10;;;0.60;;
11414;SDS011;5763;42.714;23.244;2023-04-15T12:59:46;1.05;;;0.60;;
11414;SDS011;5763;42.714;23.244;2023-04-15T13:02:13;1.58;;;0.70;;
11414;SDS011;5763;42.714;23.244;2023-04-15T13:04:40;0.80;;;0.55;;
11414;SDS011;5763;42.714;23.244;2023-04-15T13:07:06;0.80;;;0.50;;
11414;SDS011;5763;42.714;23.244;2023-04-15T13:09:33;1.15;;;0.73;;
11414;SDS011;5763;42.714;23.244;2023-04-15T13:12:00;1.45;;;0.77;;
11414;SDS011;5763;42.714;23.244;2023-04-15T13:14:28;1.58;;;0.60;;
11414;SDS011;5763;42.714;23.244;2023-04-15T13:16:57;0.90;;;0.68;;
11414;SDS011;5763;42.714;23.244;2023-04-15T13:19:24;1.02;;;0.43;;
11414;SDS011;5763;42.714;23.244;2023-04-15T13:21:51;1.67;;;0.65;;
11414;SDS011;5763;42.714;23.244;2023-04-15T13:24:18;1.45;;;0.50;;
11414;SDS011;5763;42.714;23.244;2023-04-15T13:26:45;1.35;;;0.60;;
11414;SDS011;5763;42.714;23.244;2023-04-15T13:29:12;2.28;;;0.60;;
11414;SDS011;5763;42.714;23.244;2023-04-15T13:31:38;1.25;;;0.80;;
11414;SDS011;5763;42.714;23.244;2023-04-15T13:34:06;1.30;;;0.70;;
11414;SDS011;5763;42.714;23.244;2023-04-15T13:36:33;1.17;;;0.80;;
11414;SDS011;5763;42.714;23.244;2023-04-15T13:39:00;3.28;;;0.90;;
11414;SDS011;5763;42.714;23.244;2023-04-15T13:41:27;1.20;;;0.70;;
11414;SDS011;5763;42.714;23.244;2023-04-15T13:43:54;2.30;;;0.70;;
11414;SDS011;5763;42.714;23.244;2023-04-15T13:46:22;1.10;;;0.77;;
11414;SDS011;5763;42.714;23.244;2023-04-15T13:48:50;1.38;;;0.73;;
11414;SDS011;5763;42.714;23.244;2023-04-15T13:51:18;1.60;;;0.70;;
11414;SDS011;5763;42.714;23.244;2023-04-15T13:53:44;2.03;;;0.93;;
11414;SDS011;5763;42.714;23.244;2023-04-15T13:56:11;1.25;;;0.70;;
11414;SDS011;5763;42.714;23.244;2023-04-15T13:58:39;1.85;;;0.70;;
11414;SDS011;5763;42.714;23.244;2023-04-15T14:01:05;1.50;;;0.50;;
11414;SDS011;5763;42.714;23.244;2023-04-15T14:03:33;1.90;;;0.85;;
11414;SDS011;5763;42.714;23.244;2023-04-15T14:06:00;1.65;;;0.60;;
11414;SDS011;5763;42.714;23.244;2023-04-15T14:08:28;1.08;;;0.50;;
11414;SDS011;5763;42.714;23.244;2023-04-15T14:10:55;0.98;;;0.50;;
11414;SDS011;5763;42.714;23.244;2023-04-15T14:13:22;2.47;;;0.77;;
11414;SDS011;5763;42.714;23.244;2023-04-15T14:15:49;1.70;;;0.77;;
11414;SDS011;5763;42.714;23.244;2023-04-15T14:18:16;1.10;;;0.77;;
11414;SDS011;5763;42.714;23.244;2023-04-15T14:20:43;1.02;;;0.50;;
11414;SDS011;5763;42.714;23.244;2023-04-15T14:23:09;1.00;;;0.52;;
11414;SDS011;5763;42.714;23.244;2023-04-15T14:25:38;3.80;;;0.73;;
11414;SDS011;5763;42.714;23.244;2023-04-15T14:28:04;1.67;;;0.70;;
11414;SDS011;5763;42.714;23.244;2023-04-15T14:30:31;2.45;;;0.77;;
11414;SDS011;5763;42.714;23.244;2023-04-15T14:32:58;1.40;;;0.70;;
11414;SDS011;5763;42.714;23.244;2023-04-15T14:35:25;1.70;;;0.65;;
11414;SDS011;5763;42.714;23.244;2023-04-15T14:37:52;1.10;;;0.80;;
11414;SDS011;5763;42.714;23.244;2023-04-15T14:40:19;2.33;;;0.73;;
11414;SDS011;5763;42.714;23.244;2023-04-15T14:42:47;1.05;;;0.60;;
11414;SDS011;5763;42.714;23.244;2023-04-15T14:45:14;2.25;;;0.68;;
11414;SDS011;5763;42.714;23.244;2023-04-15T14:47:41;1.08;;;0.60;;
11414;SDS011;5763;42.714;23.244;2023-04-15T14:50:08;1.17;;;0.80;;
11414;SDS011;5763;42.714;23.244;2023-04-15T14:52:35;1.45;;;0.70;;
11414;SDS011;5763;42.714;23.244;2023-04-15T14:55:04;1.00;;;0.60;;
11414;SDS011;5763;42.714;23.244;2023-04-15T14:57:31;0.80;;;0.77;;
11414;SDS011;5763;42.714;23.244;2023-04-15T14:59:59;2.45;;;0.80;;